Terminal Aerodrome Forecast
Issued by NWS Bismarck, ND

Home | Current Version | Previous Version | Text Only | Print | Product List | Glossary On
Versions: 1 2 3 4 5 6 7 8 9 10 11 12 13 14 15 16
000
FTUS43 KBIS 220541
TAFBIS
TAF
KBIS 220541Z 2206/2306 05006KT 1/4SM FG VV002
     FM221700 34004KT 1SM BR OVC003
      TEMPO 2218/2220 3SM BR BKN008
     FM222000 33004KT 3SM BR SCT010 BKN025
     FM222100 VRB03KT P6SM SCT020
     FM230100 VRB03KT P6SM BKN150=

USA.gov is the U.S. government's official web portal to all federal, state and local government web resources and services.